Time;durP1;ratioP1;P1;durP2;ratioP2;P2;SDS_P1;SDS_P2;PMS_P1;PMS_P2;Temp;Humidity;BMP_temperature;BMP_pressure;BME280_temperature;BME280_humidity;BME280_pressure;Samples;Min_cycle;Max_cycle;Signal;HPM_P1;HPM_P2
2022/01/25 00:27:40;;;;;;;104.97;55.85;;;141.10;2176.00;;;;;;4874576;29;20462;-78
2022/01/25 00:33:13;;;;;;;101.90;51.00;;;141.20;2176.00;;;;;;4875211;29;20034;-78
2022/01/25 00:35:42;;;;;;;116.38;59.92;;;141.30;2176.00;;;;;;4858195;29;20049;-78
2022/01/25 00:38:10;;;;;;;127.68;64.47;;;141.40;2176.00;;;;;;4860137;29;20032;-77
2022/01/25 00:55:20;;;;;;;118.95;64.28;;;141.30;2176.00;;;;;;4803835;29;20066;-81
2022/01/25 00:59:01;;;;;;;174.50;98.50;;;141.40;2176.00;;;;;;4845715;29;20042;-81
2022/01/25 01:06:06;;;;;;;221.00;105.50;;;141.40;2176.00;;;;;;4807033;30;20601;-80
2022/01/25 01:09:50;;;;;;;218.52;102.07;;;141.40;2176.00;;;;;;4738640;30;20100;-81
2022/01/25 01:44:03;;;;;;;140.38;70.63;;;166.80;2176.00;;;;;;4718243;30;20117;-81
2022/01/25 01:47:47;;;;;;;129.10;67.03;;;166.70;2176.00;;;;;;4718239;30;20037;-81
2022/01/25 01:51:17;;;;;;;150.73;67.78;;;166.60;2176.00;;;;;;4754018;30;20024;-81
2022/01/25 01:54:39;;;;;;;129.43;63.45;;;166.90;2176.00;;;;;;4785744;29;20039;-80
2022/01/25 02:08:45;;;;;;;126.25;65.82;;;166.60;2176.00;;;;;;4785478;30;20050;-81
2022/01/25 02:11:52;;;;;;;109.50;58.83;;;166.60;2176.00;;;;;;4787803;29;20035;-81
2022/01/25 02:15:26;;;;;;;114.30;56.85;;;166.80;2176.00;;;;;;4860135;29;20062;-80
2022/01/25 02:24:37;;;;;;;113.43;56.25;;;166.90;2176.00;;;;;;4829440;29;20055;-80
2022/01/25 02:30:54;;;;;;;156.07;74.20;;;166.90;2176.00;;;;;;4839969;29;20127;-80
2022/01/25 02:34:10;;;;;;;156.02;74.43;;;167.00;2176.00;;;;;;4813097;29;20056;-81
2022/01/25 02:37:16;;;;;;;136.27;68.57;;;167.10;2176.00;;;;;;4795473;29;20048;-80
2022/01/25 02:50:28;;;;;;;153.13;71.43;;;167.10;2176.00;;;;;;4846911;29;20037;-81
2022/01/25 02:53:36;;;;;;;157.88;71.75;;;167.00;2176.00;;;;;;4800811;29;20027;-81
2022/01/25 03:17:25;;;;;;;155.55;79.30;;;166.70;2176.00;;;;;;4814685;29;20074;-80
2022/01/25 03:20:58;;;;;;;144.52;67.63;;;167.10;2176.00;;;;;;4810028;30;20087;-80
2022/01/25 03:27:37;;;;;;;138.55;67.35;;;167.20;2176.00;;;;;;4801779;29;20534;-80
2022/01/25 03:31:19;;;;;;;98.15;47.95;;;167.20;2176.00;;;;;;4806737;29;20096;-80
2022/01/25 03:38:01;;;;;;;134.00;64.13;;;192.20;2176.00;;;;;;4829410;29;20054;-80
2022/01/25 03:44:10;;;;;;;108.10;50.40;;;192.40;2176.00;;;;;;4832221;29;20059;-81
2022/01/25 03:47:31;;;;;;;84.15;42.90;;;192.60;2176.00;;;;;;4846403;29;20038;-81
2022/01/25 03:50:44;;;;;;;87.25;40.20;;;192.60;2176.00;;;;;;4819690;29;20063;-81
2022/01/25 03:54:37;;;;;;;97.38;44.63;;;192.60;2176.00;;;;;;4842872;29;20031;-80
2022/01/25 04:09:01;;;;;;;99.15;45.22;;;192.60;2176.00;;;;;;4824318;29;20114;-80
2022/01/25 04:12:51;;;;;;;96.25;43.50;;;192.50;2176.00;;;;;;4744954;30;20039;-80
2022/01/25 04:16:13;;;;;;;87.68;45.05;;;192.80;2176.00;;;;;;4737141;30;20045;-80
2022/01/25 04:19:29;;;;;;;106.88;48.45;;;192.80;2176.00;;;;;;4750741;30;20017;-81
2022/01/25 04:26:15;;;;;;;101.35;46.92;;;192.80;2176.00;;;;;;4787552;30;20095;-81
2022/01/25 04:29:05;;;;;;;65.50;34.95;;;192.70;2176.00;;;;;;4784339;30;20039;-81
2022/01/25 04:51:54;;;;;;;79.00;36.22;;;192.60;2176.00;;;;;;4786382;30;20404;-80
2022/01/25 04:55:22;;;;;;;85.22;43.08;;;192.70;2176.00;;;;;;4761756;30;20035;-80
2022/01/25 05:02:08;;;;;;;94.07;45.83;;;192.60;2176.00;;;;;;4748617;30;20413;-81
2022/01/25 05:05:56;;;;;;;87.15;40.90;;;192.50;2176.00;;;;;;4700332;30;20030;-80
2022/01/25 05:16:06;;;;;;;105.13;53.67;;;192.50;2176.00;;;;;;4689751;30;20072;-80
2022/01/25 05:26:05;;;;;;;70.90;35.72;;;217.80;2150.40;;;;;;4697266;30;20069;-80
2022/01/25 05:29:19;;;;;;;74.65;40.13;;;218.00;2150.40;;;;;;4698303;30;20065;-81
2022/01/25 05:32:45;;;;;;;89.38;44.42;;;218.10;2150.40;;;;;;4699365;30;20034;-81
2022/01/25 05:38:49;;;;;;;102.32;51.08;;;218.10;2150.40;;;;;;4776239;30;20061;-80
2022/01/25 05:42:13;;;;;;;162.32;65.82;;;218.10;2150.40;;;;;;4768252;30;20040;-80
2022/01/25 05:45:39;;;;;;;154.77;64.47;;;218.30;2150.40;;;;;;4746102;30;20072;-80
2022/01/25 05:48:43;;;;;;;142.15;59.40;;;218.30;2150.40;;;;;;4735864;30;20025;-81
2022/01/25 05:52:11;;;;;;;159.18;69.85;;;218.30;2150.40;;;;;;4751253;30;20102;-81
2022/01/25 05:58:50;;;;;;;143.65;65.55;;;218.40;2150.40;;;;;;4721708;30;20080;-82
2022/01/25 06:01:35;;;;;;;128.40;63.40;;;218.30;2150.40;;;;;;4751838;30;20051;-81
2022/01/25 06:04:58;;;;;;;179.35;78.28;;;218.20;2150.40;;;;;;4736416;30;20045;-80
2022/01/25 06:08:22;;;;;;;139.55;67.85;;;218.20;2150.40;;;;;;4673224;30;20035;-78
2022/01/25 06:15:26;;;;;;;155.80;68.95;;;218.30;2150.40;;;;;;4760874;30;20043;-81
2022/01/25 06:18:42;;;;;;;150.45;63.55;;;218.20;2150.40;;;;;;4842855;29;20067;-78
2022/01/25 06:22:15;;;;;;;149.90;66.28;;;218.20;2150.40;;;;;;4833322;29;20049;-78
2022/01/25 06:25:07;;;;;;;108.80;53.38;;;218.20;2150.40;;;;;;4818154;29;20120;-81
2022/01/25 06:28:19;;;;;;;99.43;48.53;;;218.30;2150.40;;;;;;4817177;29;20083;-81
2022/01/25 06:31:43;;;;;;;92.15;44.38;;;218.40;2150.40;;;;;;4862910;29;20021;-80
2022/01/25 06:35:04;;;;;;;100.90;45.75;;;218.40;2150.40;;;;;;4814890;29;20026;-83
2022/01/25 06:41:47;;;;;;;77.10;39.38;;;218.30;2150.40;;;;;;4830799;29;20041;-82
2022/01/25 06:45:08;;;;;;;74.82;36.47;;;218.10;2150.40;;;;;;4859031;29;20036;-80
2022/01/25 06:48:14;;;;;;;116.18;54.47;;;218.00;2150.40;;;;;;4828273;29;20029;-82
2022/01/25 06:51:11;;;;;;;117.43;50.90;;;217.80;2150.40;;;;;;4858705;29;20081;-81
2022/01/25 06:54:11;;;;;;;125.35;61.67;;;217.70;2150.40;;;;;;4855410;29;20066;-81
2022/01/25 06:57:28;;;;;;;111.07;47.58;;;217.70;2150.40;;;;;;4837781;29;20066;-82
2022/01/25 07:00:47;;;;;;;138.07;60.33;;;192.90;2176.00;;;;;;4821537;29;20049;-80
2022/01/25 07:03:57;;;;;;;107.45;53.03;;;192.80;2176.00;;;;;;4847694;29;20034;-81
2022/01/25 07:06:30;;;;;;;106.97;47.75;;;192.80;2176.00;;;;;;4842962;29;20034;-81
2022/01/25 07:09:46;;;;;;;120.90;56.42;;;192.70;2176.00;;;;;;4841269;29;20033;-81
2022/01/25 07:12:52;;;;;;;83.63;40.03;;;192.50;2176.00;;;;;;4812379;29;20124;-81
2022/01/25 07:23:41;;;;;;;126.32;63.65;;;192.30;2176.00;;;;;;4840661;29;20077;-82
2022/01/25 07:27:08;;;;;;;190.82;82.47;;;192.20;2176.00;;;;;;4821928;29;20030;-79
2022/01/25 07:34:00;;;;;;;131.38;59.97;;;192.50;2176.00;;;;;;4881794;29;20044;-81
2022/01/25 07:37:08;;;;;;;121.57;63.65;;;192.60;2176.00;;;;;;4841193;29;20045;-80
2022/01/25 07:40:22;;;;;;;101.47;53.45;;;192.60;2176.00;;;;;;4834089;29;20054;-81
2022/01/25 07:43:20;;;;;;;78.05;39.92;;;192.60;2176.00;;;;;;4843184;29;20034;-81
2022/01/25 07:46:44;;;;;;;78.45;41.22;;;192.40;2176.00;;;;;;4827528;29;20030;-80
2022/01/25 07:49:31;;;;;;;92.05;49.53;;;192.40;2176.00;;;;;;4834197;29;20039;-81
2022/01/25 07:59:20;;;;;;;82.07;42.20;;;192.30;2176.00;;;;;;4769320;30;20079;-80
2022/01/25 08:01:59;;;;;;;83.65;46.92;;;192.30;2176.00;;;;;;4754049;30;20040;-80
2022/01/25 08:05:21;;;;;;;103.95;52.65;;;192.20;2176.00;;;;;;4801102;29;20026;-81
2022/01/25 08:08:37;;;;;;;92.95;46.03;;;192.30;2176.00;;;;;;4863482;29;20036;-80
2022/01/25 08:11:22;;;;;;;;;;;192.30;2176.00;;;;;;4830602;29;20034;-81
2022/01/25 08:14:29;;;;;;;91.60;45.33;;;192.30;2176.00;;;;;;4840465;29;19912;-81
2022/01/25 08:17:48;;;;;;;75.10;35.15;;;192.40;2176.00;;;;;;4821290;29;20062;-81
2022/01/25 08:21:04;;;;;;;97.90;50.90;;;192.40;2176.00;;;;;;4827557;29;20388;-82
2022/01/25 08:24:31;;;;;;;80.95;41.60;;;192.20;2176.00;;;;;;4843548;29;20034;-82
2022/01/25 08:27:24;;;;;;;85.85;44.00;;;192.20;2176.00;;;;;;4799891;30;20054;-81
2022/01/25 08:30:34;;;;;;;100.93;52.78;;;192.00;2176.00;;;;;;4811665;29;20034;-81
2022/01/25 08:33:35;;;;;;;80.40;42.80;;;167.20;2176.00;;;;;;4840306;29;20065;-80
2022/01/25 08:36:43;;;;;;;76.70;36.53;;;167.00;2176.00;;;;;;4819125;29;20656;-80
2022/01/25 08:39:21;;;;;;;85.07;40.83;;;166.90;2176.00;;;;;;4826580;29;20044;-80
2022/01/25 08:42:21;;;;;;;74.40;40.50;;;166.80;2176.00;;;;;;4841993;29;20058;-81
2022/01/25 08:45:10;;;;;;;77.15;41.75;;;166.70;2176.00;;;;;;4880755;29;20081;-80
2022/01/25 08:48:17;;;;;;;127.18;59.88;;;166.50;2176.00;;;;;;4849426;29;20049;-81
2022/01/25 08:51:20;;;;;;;118.80;61.72;;;141.70;2176.00;;;;;;4843935;29;20037;-81
2022/01/25 08:54:13;;;;;;;108.78;59.03;;;166.40;2176.00;;;;;;4882592;29;20029;-81
2022/01/25 08:57:22;;;;;;;98.22;49.65;;;141.60;2176.00;;;;;;4864189;29;20101;-81
2022/01/25 09:00:56;;;;;;;112.00;58.90;;;141.40;2176.00;;;;;;4883282;29;20032;-81
2022/01/25 09:03:57;;;;;;;101.35;55.65;;;141.40;2176.00;;;;;;4851654;29;20025;-81
2022/01/25 09:06:59;;;;;;;115.97;58.75;;;141.20;2176.00;;;;;;4835130;29;20097;-81
2022/01/25 09:09:41;;;;;;;102.53;55.60;;;141.10;2176.00;;;;;;4865362;29;20026;-81
2022/01/25 09:12:28;;;;;;;99.20;55.65;;;141.00;2176.00;;;;;;4850989;29;20034;-81
2022/01/25 09:14:58;;;;;;;98.55;55.17;;;140.80;2176.00;;;;;;4864521;29;20041;-81
2022/01/25 09:18:11;;;;;;;125.18;62.70;;;116.10;2176.00;;;;;;4880690;29;20109;-81
2022/01/25 09:20:55;;;;;;;89.72;47.50;;;140.90;2176.00;;;;;;4866105;29;20057;-81
2022/01/25 09:23:44;;;;;;;76.65;41.30;;;116.10;2176.00;;;;;;4879427;29;20466;-81
2022/01/25 09:27:05;;;;;;;65.28;35.00;;;116.10;2176.00;;;;;;4851261;29;20040;-81
2022/01/25 09:29:55;;;;;;;72.65;41.85;;;115.80;2176.00;;;;;;4802127;30;20072;-80
2022/01/25 09:32:57;;;;;;;94.38;48.40;;;115.60;2176.00;;;;;;4796874;30;20031;-81
2022/01/25 09:35:35;;;;;;;82.43;41.92;;;115.50;2176.00;;;;;;4793321;29;20027;-80
2022/01/25 09:38:50;;;;;;;90.25;46.20;;;115.30;2176.00;;;;;;4803040;30;20039;-81
2022/01/25 09:42:32;;;;;;;86.93;48.15;;;115.20;2176.00;;;;;;4792196;30;20031;-79
2022/01/25 09:45:45;;;;;;;72.22;39.58;;;90.40;2176.00;;;;;;4802444;30;20062;-79
2022/01/25 09:49:27;;;;;;;82.43;43.47;;;90.30;2176.00;;;;;;4807610;30;20035;-79
2022/01/25 09:52:13;;;;;;;84.80;48.88;;;90.00;2176.00;;;;;;4783787;30;20081;-77
2022/01/25 09:54:39;;;;;;;90.82;56.05;;;89.70;2176.00;;;;;;4783436;30;20023;-77
2022/01/25 09:57:07;;;;;;;98.22;62.70;;;64.90;2201.60;;;;;;4833222;29;20034;-77
2022/01/25 10:07:04;;;;;;;40.65;25.27;;;64.70;2201.60;;;;;;4884640;29;20104;-80
2022/01/25 10:14:11;;;;;;;48.85;26.17;;;64.40;2201.60;;;;;;4840526;29;20026;-80
2022/01/25 10:20:29;;;;;;;44.05;25.65;;;64.10;2201.60;;;;;;4805384;30;20107;-80
2022/01/25 10:25:54;;;;;;;44.28;24.73;;;39.30;2201.60;;;;;;4941438;24;20050;-78
2022/01/25 10:28:24;;;;;;;48.35;25.67;;;39.30;2201.60;;;;;;4845162;29;20026;-76
2022/01/25 10:30:55;;;;;;;44.45;27.83;;;39.20;2201.60;;;;;;4822338;29;20050;-77
2022/01/25 10:33:35;;;;;;;56.80;36.50;;;39.10;2201.60;;;;;;4823053;29;20022;-79
2022/01/25 10:36:23;;;;;;;44.42;27.10;;;39.10;2201.60;;;;;;4824065;29;20129;-78
2022/01/25 10:38:55;;;;;;;82.28;48.05;;;39.30;2201.60;;;;;;4822947;29;20387;-77
2022/01/25 10:41:24;;;;;;;51.80;34.38;;;38.90;2201.60;;;;;;4822527;29;20125;-75
2022/01/25 10:43:52;;;;;;;43.63;24.35;;;38.90;2201.60;;;;;;4820407;29;20069;-76
2022/01/25 10:46:31;;;;;;;39.70;21.48;;;38.80;2201.60;;;;;;4823773;29;20034;-77
2022/01/25 10:49:13;;;;;;;36.92;20.33;;;38.80;2201.60;;;;;;4822345;29;20089;-74
2022/01/25 10:51:48;;;;;;;35.88;20.35;;;38.60;2201.60;;;;;;4821318;29;20027;-76
2022/01/25 10:54:41;;;;;;;41.08;22.60;;;38.50;2201.60;;;;;;4815456;29;20034;-75
2022/01/25 10:57:20;;;;;;;42.40;20.07;;;13.70;2201.60;;;;;;4813259;29;20030;-80
2022/01/25 11:00:09;;;;;;;40.08;26.10;;;13.60;2201.60;;;;;;4813685;29;20743;-77
2022/01/25 11:02:35;;;;;;;43.38;27.15;;;13.40;2201.60;;;;;;4812252;29;20030;-79
2022/01/25 11:05:11;;;;;;;46.13;25.17;;;13.30;2201.60;;;;;;4812101;29;20035;-82
2022/01/25 11:07:46;;;;;;;48.13;26.77;;;13.30;2201.60;;;;;;4797438;29;20547;-84
2022/01/25 11:10:33;;;;;;;44.75;25.17;;;13.10;2201.60;;;;;;4811863;29;20080;-84
2022/01/25 11:13:03;;;;;;;48.78;27.20;;;13.00;2201.60;;;;;;4811992;29;20159;-83
2022/01/25 11:15:29;;;;;;;66.95;32.83;;;13.00;2201.60;;;;;;4811925;29;20030;-87
2022/01/25 11:17:55;;;;;;;91.25;46.10;;;0.00;2201.60;;;;;;4810882;29;20198;-86
2022/01/25 11:20:21;;;;;;;32.65;19.48;;;12.90;2201.60;;;;;;4827724;29;20110;-84
2022/01/25 11:22:47;;;;;;;32.25;20.85;;;0.10;2201.60;;;;;;4811514;29;20486;-87
2022/01/25 11:25:18;;;;;;;23.15;14.80;;;0.30;2201.60;;;;;;4811325;29;20035;-86
2022/01/25 11:27:45;;;;;;;32.80;18.55;;;0.20;2201.60;;;;;;4811801;29;20022;-83
2022/01/25 11:30:18;;;;;;;54.92;29.10;;;0.10;2176.00;;;;;;4811792;29;20033;-87
2022/01/25 11:32:47;;;;;;;26.17;16.52;;;0.20;2176.00;;;;;;4811206;29;20029;-85
2022/01/25 11:35:17;;;;;;;48.45;29.05;;;0.30;2150.40;;;;;;4811668;29;20030;-87
2022/01/25 11:37:45;;;;;;;40.10;25.60;;;0.70;2150.40;;;;;;4811487;29;20109;-86
2022/01/25 11:40:44;;;;;;;52.92;32.47;;;25.70;2124.80;;;;;;4812010;29;20472;-84
2022/01/25 11:43:16;;;;;;;38.40;25.73;;;25.90;2099.20;;;;;;4811558;29;20073;-84
2022/01/25 11:45:49;;;;;;;35.85;20.17;;;26.00;2048.00;;;;;;4811102;29;20033;-86
2022/01/25 11:48:23;;;;;;;25.60;16.50;;;26.20;2022.40;;;;;;4811429;29;20106;-87
2022/01/25 11:50:49;;;;;;;39.58;25.45;;;51.20;2073.60;;;;;;4811297;29;20365;-88
2022/01/25 11:53:17;;;;;;;30.88;20.92;;;51.50;2022.40;;;;;;4811262;29;20034;-86
2022/01/25 11:55:48;;;;;;;37.53;23.42;;;51.70;2048.00;;;;;;4811479;29;20483;-87
2022/01/25 11:58:28;;;;;;;42.30;26.75;;;52.00;1996.80;;;;;;4811904;29;20026;-86
2022/01/25 12:00:56;;;;;;;29.00;17.17;;;76.90;2022.40;;;;;;4827950;29;20029;-88
2022/01/25 12:03:24;;;;;;;30.73;18.75;;;52.10;1945.60;;;;;;4811599;29;20087;-87
2022/01/25 12:06:04;;;;;;;37.75;21.17;;;76.90;1971.20;;;;;;4811243;29;20047;-87
2022/01/25 12:08:55;;;;;;;71.28;35.35;;;77.20;1996.80;;;;;;4811529;29;20121;-87
2022/01/25 12:11:34;;;;;;;47.78;28.05;;;77.40;1920.00;;;;;;4810384;29;20106;-86
2022/01/25 12:14:40;;;;;;;47.17;27.98;;;77.50;1894.40;;;;;;4811126;29;20026;-87
2022/01/25 12:17:05;;;;;;;61.53;36.78;;;77.20;1894.40;;;;;;4811439;29;20428;-85
2022/01/25 12:19:50;;;;;;;46.53;28.83;;;77.60;1920.00;;;;;;4811297;29;20073;-82
2022/01/25 12:22:41;;;;;;;33.83;21.77;;;77.60;1894.40;;;;;;4811212;29;20030;-85
2022/01/25 12:25:15;;;;;;;33.63;20.40;;;102.50;1920.00;;;;;;4810739;29;20034;-88
2022/01/25 12:28:03;;;;;;;63.88;32.17;;;102.50;1868.80;;;;;;4810769;29;20087;-82
2022/01/25 12:30:31;;;;;;;24.10;14.75;;;102.60;1894.40;;;;;;4810628;29;20026;-83
2022/01/25 12:33:23;;;;;;;68.95;33.58;;;77.70;1843.20;;;;;;4826992;29;20022;-83
2022/01/25 12:35:49;;;;;;;78.68;36.78;;;102.80;1868.80;;;;;;4810961;29;20037;-85
2022/01/25 12:38:18;;;;;;;56.78;29.10;;;103.00;1868.80;;;;;;4810624;29;20031;-85
2022/01/25 12:40:57;;;;;;;64.63;30.42;;;103.00;1843.20;;;;;;4810823;29;20026;-85
2022/01/25 12:43:38;;;;;;;68.45;35.63;;;103.00;1868.80;;;;;;4810868;29;20037;-87
2022/01/25 12:46:12;;;;;;;51.83;28.25;;;103.30;1817.60;;;;;;4810772;29;20057;-84
2022/01/25 12:48:42;;;;;;;34.50;21.80;;;103.30;1792.00;;;;;;4810587;29;20041;-81
2022/01/25 12:51:10;;;;;;;27.92;18.55;;;103.20;1740.80;;;;;;4810276;29;20031;-82
2022/01/25 12:53:39;;;;;;;24.98;16.80;;;103.30;1766.40;;;;;;4810172;29;20023;-81
2022/01/25 12:56:10;;;;;;;26.88;14.60;;;128.20;1817.60;;;;;;4810258;29;20030;-81
2022/01/25 12:58:37;;;;;;;30.27;17.77;;;128.10;1740.80;;;;;;4826384;29;20023;-80
2022/01/25 13:01:08;;;;;;;27.50;17.27;;;128.20;1766.40;;;;;;4810175;29;20087;-83
2022/01/25 13:03:46;;;;;;;31.65;16.25;;;128.30;1740.80;;;;;;4810290;29;20026;-83
2022/01/25 13:06:20;;;;;;;24.95;15.43;;;128.50;1766.40;;;;;;4825848;29;20034;-80
2022/01/25 13:08:54;;;;;;;31.08;18.45;;;128.40;1766.40;;;;;;4826595;29;20528;-84
2022/01/25 13:15:02;;;;;;;44.72;25.73;;;103.10;1664.00;;;;;;4822030;29;20424;-82
2022/01/25 13:17:27;;;;;;;36.90;20.63;;;128.20;1766.40;;;;;;4809771;29;20125;-82
2022/01/25 13:20:02;;;;;;;45.35;28.17;;;128.40;1715.20;;;;;;4809663;29;20053;-80
2022/01/25 13:22:39;;;;;;;39.15;27.20;;;103.20;1638.40;;;;;;4808795;29;20067;-83
2022/01/25 13:28:01;;;;;;;35.83;21.85;;;103.20;1715.20;;;;;;4825918;29;20034;-81
2022/01/25 13:30:40;;;;;;;22.30;15.38;;;103.20;1715.20;;;;;;4825216;29;20428;-83
2022/01/25 13:33:06;;;;;;;;;;;102.80;1715.20;;;;;;4810361;29;20497;-83
2022/01/25 13:35:36;;;;;;;44.40;25.55;;;102.50;1792.00;;;;;;4809683;29;20303;-83
2022/01/25 13:38:17;;;;;;;26.80;17.92;;;77.70;1843.20;;;;;;4810015;29;20062;-85
2022/01/25 13:41:01;;;;;;;41.70;24.48;;;77.20;1817.60;;;;;;4826134;29;20027;-84
2022/01/25 13:46:10;;;;;;;68.53;39.20;;;76.90;1894.40;;;;;;4826089;29;20034;-84
2022/01/25 13:48:37;;;;;;;34.53;21.35;;;76.90;1920.00;;;;;;4809011;29;20115;-84
2022/01/25 13:51:06;;;;;;;58.35;28.80;;;52.10;1868.80;;;;;;4809366;29;20065;-85
2022/01/25 13:53:33;;;;;;;48.47;28.63;;;76.80;1945.60;;;;;;4809618;29;20026;-85
2022/01/25 13:56:00;;;;;;;67.68;41.75;;;76.90;1945.60;;;;;;4809107;29;20058;-84
2022/01/25 13:58:31;;;;;;;47.85;29.27;;;77.00;1945.60;;;;;;4809528;29;20022;-84
2022/01/25 14:00:59;;;;;;;41.15;23.98;;;77.10;1945.60;;;;;;4809597;29;20027;-83
2022/01/25 14:03:30;;;;;;;56.35;36.00;;;77.40;1920.00;;;;;;4809388;29;20033;-85
2022/01/25 14:05:57;;;;;;;107.38;72.38;;;77.50;1894.40;;;;;;4809369;29;20034;-84
2022/01/25 14:08:38;;;;;;;144.50;91.05;;;77.60;1920.00;;;;;;4808943;29;20026;-83
2022/01/25 14:11:33;;;;;;;67.53;46.00;;;102.50;1945.60;;;;;;4825418;29;20026;-84
2022/01/25 14:22:32;;;;;;;53.38;33.63;;;102.60;1920.00;;;;;;4825480;29;20063;-84
2022/01/25 14:24:58;;;;;;;65.20;42.40;;;102.80;1920.00;;;;;;4824756;29;20035;-82
2022/01/25 14:27:30;;;;;;;52.10;29.17;;;102.80;1920.00;;;;;;4825719;29;20051;-82
2022/01/25 14:29:57;;;;;;;98.13;50.10;;;102.70;1868.80;;;;;;4808972;29;20022;-86
2022/01/25 14:32:29;;;;;;;58.28;37.60;;;102.50;1868.80;;;;;;4808713;29;20266;-86
2022/01/25 14:35:04;;;;;;;84.75;44.95;;;77.70;1920.00;;;;;;4809025;29;20022;-83
2022/01/25 14:37:30;;;;;;;69.00;39.83;;;77.40;1920.00;;;;;;4824944;29;20022;-82
2022/01/25 14:40:08;;;;;;;69.53;42.55;;;77.20;1971.20;;;;;;4825328;29;20105;-83
2022/01/25 14:42:37;;;;;;;85.03;47.17;;;76.90;1996.80;;;;;;4825704;29;20460;-85
2022/01/25 14:45:05;;;;;;;83.85;47.88;;;52.10;2022.40;;;;;;4808424;29;20387;-79
2022/01/25 14:47:43;;;;;;;71.57;46.08;;;51.80;2073.60;;;;;;4808121;29;20026;-84
2022/01/25 14:50:25;;;;;;;63.40;38.13;;;51.50;2124.80;;;;;;4832143;29;20037;-81
2022/01/25 14:53:03;;;;;;;108.35;60.25;;;51.30;2150.40;;;;;;4826351;29;20498;-82
2022/01/25 14:55:32;;;;;;;70.97;45.72;;;26.50;2150.40;;;;;;4825988;29;20041;-80
2022/01/25 15:00:49;;;;;;;65.53;40.45;;;26.20;2176.00;;;;;;4843035;29;20037;-85
2022/01/25 15:03:17;;;;;;;66.88;43.47;;;25.90;2201.60;;;;;;4826700;29;20375;-83
2022/01/25 15:05:43;;;;;;;63.47;38.38;;;25.80;2201.60;;;;;;4825777;29;20058;-84
2022/01/25 15:08:08;;;;;;;56.60;35.58;;;25.80;2201.60;;;;;;4826581;29;20034;-81
2022/01/25 15:10:34;;;;;;;50.75;30.17;;;0.90;2201.60;;;;;;4826416;29;20375;-83
2022/01/25 15:13:03;;;;;;;53.50;34.15;;;0.70;2201.60;;;;;;4825565;29;20033;-86
2022/01/25 15:15:45;;;;;;;52.30;32.47;;;0.40;2201.60;;;;;;4826174;29;20038;-89
2022/01/25 15:18:11;;;;;;;68.38;43.38;;;0.40;2201.60;;;;;;4826857;29;20033;-85
2022/01/25 15:20:38;;;;;;;52.13;34.70;;;0.20;2201.60;;;;;;4810668;29;20235;-82
2022/01/25 15:23:04;;;;;;;61.55;39.95;;;0.30;2201.60;;;;;;4811715;29;20027;-86
2022/01/25 15:25:30;;;;;;;58.95;38.97;;;0.20;2201.60;;;;;;4812847;29;20057;-86
2022/01/25 15:27:56;;;;;;;66.15;44.05;;;0.30;2201.60;;;;;;4823977;29;20034;-83
2022/01/25 15:30:22;;;;;;;55.38;36.13;;;0.20;2201.60;;;;;;4822919;29;20038;-86
2022/01/25 15:32:49;;;;;;;55.83;35.50;;;0.10;2201.60;;;;;;4822947;29;20083;-86
2022/01/25 15:35:18;;;;;;;98.30;54.85;;;0.10;2201.60;;;;;;4825143;29;20036;-86
2022/01/25 15:37:45;;;;;;;74.20;45.75;;;0.10;2201.60;;;;;;4825574;29;20030;-86
2022/01/25 15:40:12;;;;;;;68.30;42.40;;;0.00;2201.60;;;;;;4825767;29;20379;-85
2022/01/25 15:42:38;;;;;;;82.07;45.65;;;0.00;2201.60;;;;;;4812283;29;20031;-85
2022/01/25 15:45:24;;;;;;;88.05;51.45;;;12.90;2201.60;;;;;;4814360;29;20125;-86
2022/01/25 15:47:50;;;;;;;88.68;53.30;;;13.00;2201.60;;;;;;4817655;29;20034;-88
2022/01/25 15:50:16;;;;;;;111.55;64.80;;;12.90;2201.60;;;;;;4823947;29;20372;-86
2022/01/25 15:52:46;;;;;;;121.53;72.72;;;12.90;2201.60;;;;;;4824367;29;20027;-88
2022/01/25 15:55:11;;;;;;;90.47;55.67;;;12.90;2201.60;;;;;;4813063;29;20535;-86
2022/01/25 15:57:37;;;;;;;96.50;59.83;;;13.00;2201.60;;;;;;4818372;29;20034;-88
2022/01/25 16:00:05;;;;;;;114.93;67.53;;;13.00;2201.60;;;;;;4819378;29;20017;-85
2022/01/25 16:02:31;;;;;;;164.35;92.18;;;13.10;2201.60;;;;;;4815005;29;20050;-85
2022/01/25 16:04:57;;;;;;;200.32;115.18;;;13.10;2201.60;;;;;;4817823;29;20030;-84
2022/01/25 16:07:23;;;;;;;186.60;107.20;;;13.10;2201.60;;;;;;4810472;29;20035;-84
2022/01/25 16:09:54;;;;;;;206.60;119.85;;;13.20;2201.60;;;;;;4810771;29;20037;-86
2022/01/25 16:12:20;;;;;;;204.60;121.30;;;13.20;2201.60;;;;;;4810633;29;20125;-88
2022/01/25 16:14:46;;;;;;;195.52;116.07;;;13.30;2201.60;;;;;;4810494;29;20121;-85
2022/01/25 16:17:12;;;;;;;164.45;102.18;;;13.30;2201.60;;;;;;4810649;29;20030;-87
2022/01/25 16:19:38;;;;;;;182.70;113.25;;;13.40;2201.60;;;;;;4810860;29;20030;-83
2022/01/25 16:22:05;;;;;;;213.68;122.97;;;13.60;2201.60;;;;;;4810486;29;20034;-82
2022/01/25 16:24:31;;;;;;;225.63;131.60;;;13.50;2201.60;;;;;;4795810;29;20098;-85
2022/01/25 16:26:57;;;;;;;244.60;128.80;;;13.60;2201.60;;;;;;4810150;29;20046;-85
2022/01/25 16:29:23;;;;;;;270.35;138.75;;;13.60;2201.60;;;;;;4809725;29;20034;-86
2022/01/25 16:31:50;;;;;;;261.17;136.45;;;13.60;2201.60;;;;;;4812465;29;20034;-85
2022/01/25 16:34:16;;;;;;;179.45;109.07;;;13.60;2201.60;;;;;;4813962;29;20112;-87
2022/01/25 16:36:44;;;;;;;171.38;107.10;;;13.70;2201.60;;;;;;4817694;29;20030;-87
2022/01/25 16:39:12;;;;;;;209.30;118.75;;;38.40;2201.60;;;;;;4819613;29;20054;-84
2022/01/25 16:41:38;;;;;;;214.63;125.65;;;38.40;2201.60;;;;;;4828071;29;20037;-84
2022/01/25 16:44:04;;;;;;;185.82;113.30;;;38.40;2201.60;;;;;;4828326;29;20036;-84
2022/01/25 16:46:31;;;;;;;181.00;112.00;;;38.50;2201.60;;;;;;4828462;29;20458;-80
2022/01/25 16:48:57;;;;;;;189.95;114.65;;;38.40;2201.60;;;;;;4828741;29;20028;-79
2022/01/25 16:51:27;;;;;;;195.05;119.70;;;38.60;2201.60;;;;;;4826661;29;20022;-85
2022/01/25 16:53:53;;;;;;;207.48;123.85;;;38.50;2201.60;;;;;;4805380;29;20368;-84
2022/01/25 16:56:20;;;;;;;134.18;81.35;;;38.50;2201.60;;;;;;4809600;29;20034;-83
2022/01/25 16:58:48;;;;;;;125.45;74.85;;;39.10;2201.60;;;;;;4809958;29;20066;-87
2022/01/25 17:01:14;;;;;;;129.95;74.03;;;38.90;2201.60;;;;;;4810071;29;20065;-84
2022/01/25 17:03:40;;;;;;;157.75;99.22;;;38.90;2201.60;;;;;;4810167;29;20034;-87
2022/01/25 17:06:06;;;;;;;198.00;111.97;;;38.90;2201.60;;;;;;4809306;29;20437;-84
2022/01/25 17:08:31;;;;;;;176.02;105.65;;;38.90;2201.60;;;;;;4809815;29;20026;-88
2022/01/25 17:10:57;;;;;;;176.75;91.75;;;38.90;2201.60;;;;;;4809560;29;20026;-87
2022/01/25 17:13:23;;;;;;;160.82;86.38;;;38.80;2201.60;;;;;;4809328;29;20460;-87
2022/01/25 17:15:51;;;;;;;176.07;92.45;;;38.80;2201.60;;;;;;4809609;29;20030;-85
2022/01/25 17:18:17;;;;;;;170.13;95.22;;;38.90;2201.60;;;;;;4809875;29;20139;-80
2022/01/25 17:20:44;;;;;;;172.73;93.03;;;39.00;2201.60;;;;;;4810080;29;20321;-81
2022/01/25 17:23:09;;;;;;;168.40;108.05;;;39.00;2201.60;;;;;;4809684;29;20026;-75
2022/01/25 17:25:36;;;;;;;132.18;78.85;;;39.10;2201.60;;;;;;4825467;29;20046;-86
2022/01/25 17:28:03;;;;;;;164.55;89.97;;;39.00;2201.60;;;;;;4809848;29;20030;-81
2022/01/25 17:30:29;;;;;;;172.38;96.63;;;39.00;2201.60;;;;;;4809635;29;20027;-83
2022/01/25 17:32:55;;;;;;;132.52;80.15;;;39.10;2201.60;;;;;;4809529;29;20026;-87
2022/01/25 17:35:21;;;;;;;100.20;61.33;;;39.20;2201.60;;;;;;4809799;29;20022;-87
2022/01/25 17:37:47;;;;;;;179.05;94.50;;;39.20;2201.60;;;;;;4815202;29;20030;-82
2022/01/25 17:40:13;;;;;;;157.82;84.35;;;39.10;2201.60;;;;;;4833309;29;20019;-84
2022/01/25 17:42:39;;;;;;;89.80;54.58;;;39.20;2201.60;;;;;;4833579;29;20014;-84
2022/01/25 17:45:06;;;;;;;179.00;87.05;;;39.20;2201.60;;;;;;4833535;29;20019;-85
2022/01/25 17:47:32;;;;;;;178.80;92.90;;;39.20;2201.60;;;;;;4833151;29;20042;-82
2022/01/25 17:49:58;;;;;;;162.18;109.38;;;39.00;2201.60;;;;;;4833406;29;20030;-82
2022/01/25 17:52:24;;;;;;;128.60;81.72;;;64.20;2201.60;;;;;;4833209;29;20015;-81
2022/01/25 17:54:50;;;;;;;126.30;77.18;;;64.30;2201.60;;;;;;4820259;29;20022;-88
2022/01/25 17:57:16;;;;;;;139.02;78.00;;;64.10;2201.60;;;;;;4809531;29;20027;-85